logo
Rechercher aéroport 
image banner adimage banner adimage banner ad
image banner ad

SGEAMA - Estancia Amapola

Situé à Estancia Ararap, Paraguay

ICAO - , IATA -

Données fournies par Airmate  

Information générale

Coordonnées: S21°24'58" W61°4'7"
Élévation : 624 feet MSL.
Variation magnétique : -13° East
Voir autres Aéroports à Boquerón Department

Données opérationnelles

Special qualification required
Heure actuelle UTC:
Heure actuelle locale:
Météo à : - ( 0 km )
METAR: KATL 110452Z 32014G22KT 10SM FEW025 03/M01 A2996 RMK AO2 PK WND 33028/0402 SLP146 T00331011 401830033
TAF: KATL 110533Z 1106/1212 32012G25KT P6SM FEW025 FM110800 32013KT P6SM FEW025 FM111600 32010KT P6SM SKC FM120000 32006KT P6SM SKC
Voir NOTAMs / SUP AIP / TFR affectant cet aéroport [VIEW]
Fréquences de communication: [VIEW]

Pistes:

Identifiant RWYQFULongueur (ft)Largeur (ft)SurfaceLDA (ft)
01355°514596DIRT
19175°514596DIRT

Coordonnées de l'aéroport

Adresse: Estancia Ararap Paraguay

Vue satellite de SGEAMA